sensor_id;sensor_type;location;lat;lon;timestamp;P1;durP1;ratioP1;P2;durP2;ratioP2
22005;SDS011;11167;46.988;15.470;2024-03-02T00:00:33;18.65;;;14.50;;
22005;SDS011;11167;46.988;15.470;2024-03-02T00:02:39;19.40;;;15.15;;
22005;SDS011;11167;46.988;15.470;2024-03-02T00:04:45;19.10;;;15.05;;
22005;SDS011;11167;46.988;15.470;2024-03-02T00:06:46;19.60;;;15.15;;
22005;SDS011;11167;46.988;15.470;2024-03-02T00:08:47;17.60;;;14.75;;
22005;SDS011;11167;46.988;15.470;2024-03-02T00:10:48;18.00;;;14.98;;
22005;SDS011;11167;46.988;15.470;2024-03-02T00:12:50;18.92;;;15.00;;
22005;SDS011;11167;46.988;15.470;2024-03-02T00:14:52;17.60;;;13.98;;
22005;SDS011;11167;46.988;15.470;2024-03-02T00:16:54;19.17;;;14.78;;
22005;SDS011;11167;46.988;15.470;2024-03-02T00:19:01;18.75;;;15.00;;
22005;SDS011;11167;46.988;15.470;2024-03-02T00:21:03;19.55;;;14.38;;
22005;SDS011;11167;46.988;15.470;2024-03-02T00:23:09;19.95;;;14.75;;
22005;SDS011;11167;46.988;15.470;2024-03-02T00:25:15;19.17;;;15.05;;
22005;SDS011;11167;46.988;15.470;2024-03-02T00:27:17;19.45;;;15.20;;
22005;SDS011;11167;46.988;15.470;2024-03-02T00:29:20;19.65;;;14.85;;
22005;SDS011;11167;46.988;15.470;2024-03-02T00:31:22;18.80;;;14.70;;
22005;SDS011;11167;46.988;15.470;2024-03-02T00:33:24;21.00;;;15.25;;
22005;SDS011;11167;46.988;15.470;2024-03-02T00:35:28;19.27;;;15.18;;
22005;SDS011;11167;46.988;15.470;2024-03-02T00:37:29;20.35;;;15.43;;
22005;SDS011;11167;46.988;15.470;2024-03-02T00:39:31;21.15;;;15.18;;
22005;SDS011;11167;46.988;15.470;2024-03-02T00:41:32;20.27;;;16.12;;
22005;SDS011;11167;46.988;15.470;2024-03-02T00:43:45;21.33;;;15.45;;
22005;SDS011;11167;46.988;15.470;2024-03-02T00:45:45;20.27;;;16.02;;
22005;SDS011;11167;46.988;15.470;2024-03-02T00:47:46;21.75;;;16.77;;
22005;SDS011;11167;46.988;15.470;2024-03-02T00:49:49;21.93;;;17.15;;
22005;SDS011;11167;46.988;15.470;2024-03-02T00:51:51;21.57;;;16.73;;
22005;SDS011;11167;46.988;15.470;2024-03-02T00:53:55;23.57;;;17.52;;
22005;SDS011;11167;46.988;15.470;2024-03-02T00:55:58;23.80;;;17.60;;
22005;SDS011;11167;46.988;15.470;2024-03-02T00:58:00;21.27;;;16.97;;
22005;SDS011;11167;46.988;15.470;2024-03-02T01:00:01;20.55;;;17.02;;
22005;SDS011;11167;46.988;15.470;2024-03-02T01:02:03;21.27;;;16.95;;
22005;SDS011;11167;46.988;15.470;2024-03-02T01:04:05;21.20;;;16.97;;
22005;SDS011;11167;46.988;15.470;2024-03-02T01:06:06;20.90;;;16.17;;
22005;SDS011;11167;46.988;15.470;2024-03-02T01:08:08;22.50;;;17.50;;
22005;SDS011;11167;46.988;15.470;2024-03-02T01:10:10;24.02;;;18.05;;
22005;SDS011;11167;46.988;15.470;2024-03-02T01:12:11;21.37;;;17.05;;
22005;SDS011;11167;46.988;15.470;2024-03-02T01:14:12;22.13;;;16.93;;
22005;SDS011;11167;46.988;15.470;2024-03-02T01:16:14;21.17;;;16.87;;
22005;SDS011;11167;46.988;15.470;2024-03-02T01:18:16;22.10;;;17.30;;
22005;SDS011;11167;46.988;15.470;2024-03-02T01:20:17;21.65;;;16.87;;
22005;SDS011;11167;46.988;15.470;2024-03-02T01:22:18;22.00;;;17.35;;
22005;SDS011;11167;46.988;15.470;2024-03-02T01:24:21;21.30;;;16.73;;
22005;SDS011;11167;46.988;15.470;2024-03-02T01:26:23;21.40;;;16.65;;
22005;SDS011;11167;46.988;15.470;2024-03-02T01:28:24;23.10;;;16.87;;
22005;SDS011;11167;46.988;15.470;2024-03-02T01:30:25;23.05;;;16.75;;
22005;SDS011;11167;46.988;15.470;2024-03-02T01:32:26;20.62;;;16.32;;
22005;SDS011;11167;46.988;15.470;2024-03-02T01:34:28;19.60;;;15.50;;
22005;SDS011;11167;46.988;15.470;2024-03-02T01:36:29;20.32;;;16.65;;
22005;SDS011;11167;46.988;15.470;2024-03-02T01:38:30;19.27;;;15.32;;
22005;SDS011;11167;46.988;15.470;2024-03-02T01:40:36;21.23;;;16.20;;
22005;SDS011;11167;46.988;15.470;2024-03-02T01:42:38;21.55;;;16.85;;
22005;SDS011;11167;46.988;15.470;2024-03-02T01:44:40;21.97;;;16.57;;
22005;SDS011;11167;46.988;15.470;2024-03-02T01:46:41;20.15;;;16.07;;
22005;SDS011;11167;46.988;15.470;2024-03-02T01:48:42;21.35;;;16.77;;
22005;SDS011;11167;46.988;15.470;2024-03-02T01:50:43;21.90;;;16.80;;
22005;SDS011;11167;46.988;15.470;2024-03-02T01:52:45;22.62;;;17.42;;
22005;SDS011;11167;46.988;15.470;2024-03-02T01:54:46;20.60;;;16.65;;
22005;SDS011;11167;46.988;15.470;2024-03-02T01:56:47;22.67;;;17.85;;
22005;SDS011;11167;46.988;15.470;2024-03-02T01:58:49;21.82;;;17.32;;
22005;SDS011;11167;46.988;15.470;2024-03-02T02:00:50;22.60;;;17.05;;
22005;SDS011;11167;46.988;15.470;2024-03-02T02:02:52;22.70;;;17.45;;
22005;SDS011;11167;46.988;15.470;2024-03-02T02:04:54;26.27;;;18.45;;
22005;SDS011;11167;46.988;15.470;2024-03-02T02:06:55;23.80;;;18.27;;
22005;SDS011;11167;46.988;15.470;2024-03-02T02:08:57;23.62;;;17.60;;
22005;SDS011;11167;46.988;15.470;2024-03-02T02:10:58;22.42;;;17.27;;
22005;SDS011;11167;46.988;15.470;2024-03-02T02:12:59;21.93;;;16.73;;
22005;SDS011;11167;46.988;15.470;2024-03-02T02:15:01;23.02;;;17.73;;
22005;SDS011;11167;46.988;15.470;2024-03-02T02:17:02;21.80;;;16.82;;
22005;SDS011;11167;46.988;15.470;2024-03-02T02:19:03;21.73;;;17.32;;
22005;SDS011;11167;46.988;15.470;2024-03-02T02:21:05;22.00;;;16.80;;
22005;SDS011;11167;46.988;15.470;2024-03-02T02:23:06;19.87;;;14.98;;
22005;SDS011;11167;46.988;15.470;2024-03-02T02:25:09;21.43;;;16.13;;
22005;SDS011;11167;46.988;15.470;2024-03-02T02:27:11;21.17;;;16.35;;
22005;SDS011;11167;46.988;15.470;2024-03-02T02:31:15;20.27;;;15.45;;
22005;SDS011;11167;46.988;15.470;2024-03-02T02:33:17;20.72;;;15.93;;
22005;SDS011;11167;46.988;15.470;2024-03-02T02:35:18;19.65;;;15.38;;
22005;SDS011;11167;46.988;15.470;2024-03-02T02:37:19;19.27;;;15.23;;
22005;SDS011;11167;46.988;15.470;2024-03-02T02:39:21;18.62;;;14.20;;
22005;SDS011;11167;46.988;15.470;2024-03-02T02:41:23;19.02;;;14.35;;
22005;SDS011;11167;46.988;15.470;2024-03-02T02:43:24;20.10;;;14.60;;
22005;SDS011;11167;46.988;15.470;2024-03-02T02:45:26;18.23;;;14.98;;
22005;SDS011;11167;46.988;15.470;2024-03-02T02:47:27;20.40;;;15.18;;
22005;SDS011;11167;46.988;15.470;2024-03-02T02:49:30;20.20;;;15.65;;
22005;SDS011;11167;46.988;15.470;2024-03-02T02:51:32;19.48;;;15.43;;
22005;SDS011;11167;46.988;15.470;2024-03-02T02:53:33;19.25;;;14.73;;
22005;SDS011;11167;46.988;15.470;2024-03-02T02:55:36;20.95;;;15.75;;
22005;SDS011;11167;46.988;15.470;2024-03-02T02:57:39;20.10;;;14.78;;
22005;SDS011;11167;46.988;15.470;2024-03-02T02:59:42;20.02;;;14.87;;
22005;SDS011;11167;46.988;15.470;2024-03-02T03:01:43;19.57;;;15.08;;
22005;SDS011;11167;46.988;15.470;2024-03-02T03:03:45;18.45;;;14.33;;
22005;SDS011;11167;46.988;15.470;2024-03-02T03:05:47;18.40;;;14.55;;
22005;SDS011;11167;46.988;15.470;2024-03-02T03:07:49;20.80;;;14.75;;
22005;SDS011;11167;46.988;15.470;2024-03-02T03:09:52;19.05;;;15.15;;
22005;SDS011;11167;46.988;15.470;2024-03-02T03:11:53;21.68;;;15.53;;
22005;SDS011;11167;46.988;15.470;2024-03-02T03:13:58;18.05;;;14.93;;
22005;SDS011;11167;46.988;15.470;2024-03-02T03:16:00;17.92;;;14.07;;
22005;SDS011;11167;46.988;15.470;2024-03-02T03:18:02;19.30;;;14.98;;
22005;SDS011;11167;46.988;15.470;2024-03-02T03:20:06;18.40;;;14.75;;
22005;SDS011;11167;46.988;15.470;2024-03-02T03:22:09;18.57;;;14.43;;
22005;SDS011;11167;46.988;15.470;2024-03-02T03:24:11;17.45;;;13.95;;
22005;SDS011;11167;46.988;15.470;2024-03-02T03:26:12;18.65;;;14.73;;
22005;SDS011;11167;46.988;15.470;2024-03-02T03:28:13;19.30;;;14.35;;
22005;SDS011;11167;46.988;15.470;2024-03-02T03:30:15;18.75;;;14.10;;
22005;SDS011;11167;46.988;15.470;2024-03-02T03:32:16;17.55;;;14.28;;
22005;SDS011;11167;46.988;15.470;2024-03-02T03:34:17;18.27;;;13.80;;
22005;SDS011;11167;46.988;15.470;2024-03-02T03:36:18;18.73;;;13.55;;
22005;SDS011;11167;46.988;15.470;2024-03-02T03:38:19;17.42;;;13.65;;
22005;SDS011;11167;46.988;15.470;2024-03-02T03:40:20;18.73;;;14.40;;
22005;SDS011;11167;46.988;15.470;2024-03-02T03:42:22;20.55;;;14.95;;
22005;SDS011;11167;46.988;15.470;2024-03-02T03:44:23;18.87;;;14.63;;
22005;SDS011;11167;46.988;15.470;2024-03-02T03:46:25;17.80;;;14.38;;
22005;SDS011;11167;46.988;15.470;2024-03-02T03:48:26;20.90;;;14.43;;
22005;SDS011;11167;46.988;15.470;2024-03-02T03:50:29;19.50;;;14.17;;
22005;SDS011;11167;46.988;15.470;2024-03-02T03:52:30;16.90;;;14.30;;
22005;SDS011;11167;46.988;15.470;2024-03-02T03:54:31;20.00;;;14.83;;
22005;SDS011;11167;46.988;15.470;2024-03-02T03:56:32;19.10;;;14.73;;
22005;SDS011;11167;46.988;15.470;2024-03-02T03:58:34;19.80;;;14.90;;
22005;SDS011;11167;46.988;15.470;2024-03-02T04:00:35;17.37;;;13.83;;
22005;SDS011;11167;46.988;15.470;2024-03-02T04:02:36;18.65;;;14.20;;
22005;SDS011;11167;46.988;15.470;2024-03-02T04:04:37;17.62;;;13.90;;
22005;SDS011;11167;46.988;15.470;2024-03-02T04:06:39;18.80;;;14.15;;
22005;SDS011;11167;46.988;15.470;2024-03-02T04:08:41;17.60;;;14.07;;
22005;SDS011;11167;46.988;15.470;2024-03-02T04:10:42;17.98;;;13.85;;
22005;SDS011;11167;46.988;15.470;2024-03-02T04:12:44;17.00;;;13.32;;
22005;SDS011;11167;46.988;15.470;2024-03-02T04:14:45;17.77;;;13.35;;
22005;SDS011;11167;46.988;15.470;2024-03-02T04:16:47;18.55;;;14.18;;
22005;SDS011;11167;46.988;15.470;2024-03-02T04:18:48;17.60;;;13.62;;
22005;SDS011;11167;46.988;15.470;2024-03-02T04:20:49;15.85;;;13.35;;
22005;SDS011;11167;46.988;15.470;2024-03-02T04:22:50;16.80;;;13.53;;
22005;SDS011;11167;46.988;15.470;2024-03-02T04:24:51;17.15;;;14.40;;
22005;SDS011;11167;46.988;15.470;2024-03-02T04:26:53;18.55;;;14.53;;
22005;SDS011;11167;46.988;15.470;2024-03-02T04:28:54;19.27;;;14.35;;
22005;SDS011;11167;46.988;15.470;2024-03-02T04:30:55;18.02;;;14.05;;
22005;SDS011;11167;46.988;15.470;2024-03-02T04:32:56;16.75;;;13.20;;
22005;SDS011;11167;46.988;15.470;2024-03-02T04:34:57;17.73;;;13.38;;
22005;SDS011;11167;46.988;15.470;2024-03-02T04:36:59;16.30;;;13.48;;
22005;SDS011;11167;46.988;15.470;2024-03-02T04:39:00;16.95;;;13.80;;
22005;SDS011;11167;46.988;15.470;2024-03-02T04:41:01;16.48;;;13.32;;
22005;SDS011;11167;46.988;15.470;2024-03-02T04:43:02;17.02;;;13.55;;
22005;SDS011;11167;46.988;15.470;2024-03-02T04:45:05;17.90;;;13.78;;
22005;SDS011;11167;46.988;15.470;2024-03-02T04:47:08;17.10;;;12.98;;
22005;SDS011;11167;46.988;15.470;2024-03-02T04:49:09;18.10;;;13.65;;
22005;SDS011;11167;46.988;15.470;2024-03-02T04:51:10;17.77;;;13.62;;
22005;SDS011;11167;46.988;15.470;2024-03-02T04:53:11;16.77;;;13.58;;
22005;SDS011;11167;46.988;15.470;2024-03-02T04:55:13;16.97;;;13.35;;
22005;SDS011;11167;46.988;15.470;2024-03-02T04:57:18;17.10;;;13.13;;
22005;SDS011;11167;46.988;15.470;2024-03-02T04:59:20;17.62;;;13.43;;
22005;SDS011;11167;46.988;15.470;2024-03-02T05:01:21;15.85;;;12.82;;
22005;SDS011;11167;46.988;15.470;2024-03-02T05:03:22;14.47;;;12.10;;
22005;SDS011;11167;46.988;15.470;2024-03-02T05:05:23;15.90;;;12.45;;
22005;SDS011;11167;46.988;15.470;2024-03-02T05:07:24;16.37;;;12.37;;
22005;SDS011;11167;46.988;15.470;2024-03-02T05:09:26;16.42;;;12.50;;
22005;SDS011;11167;46.988;15.470;2024-03-02T05:11:27;16.75;;;13.35;;
22005;SDS011;11167;46.988;15.470;2024-03-02T05:13:42;16.75;;;12.63;;
22005;SDS011;11167;46.988;15.470;2024-03-02T05:15:43;16.48;;;12.85;;
22005;SDS011;11167;46.988;15.470;2024-03-02T05:17:44;18.82;;;13.35;;
22005;SDS011;11167;46.988;15.470;2024-03-02T05:19:45;17.07;;;13.05;;
22005;SDS011;11167;46.988;15.470;2024-03-02T05:21:47;18.15;;;14.00;;
22005;SDS011;11167;46.988;15.470;2024-03-02T05:23:49;21.87;;;14.95;;
22005;SDS011;11167;46.988;15.470;2024-03-02T05:25:50;19.42;;;15.10;;
22005;SDS011;11167;46.988;15.470;2024-03-02T05:27:51;21.82;;;15.95;;
22005;SDS011;11167;46.988;15.470;2024-03-02T05:29:52;22.30;;;15.90;;
22005;SDS011;11167;46.988;15.470;2024-03-02T05:31:54;19.17;;;14.83;;
22005;SDS011;11167;46.988;15.470;2024-03-02T05:33:56;21.80;;;15.83;;
22005;SDS011;11167;46.988;15.470;2024-03-02T05:35:57;19.35;;;15.08;;
22005;SDS011;11167;46.988;15.470;2024-03-02T05:37:58;20.97;;;15.95;;
22005;SDS011;11167;46.988;15.470;2024-03-02T05:39:59;21.62;;;15.65;;
22005;SDS011;11167;46.988;15.470;2024-03-02T05:42:00;21.42;;;15.10;;
22005;SDS011;11167;46.988;15.470;2024-03-02T05:44:02;20.48;;;15.45;;
22005;SDS011;11167;46.988;15.470;2024-03-02T05:46:04;19.02;;;15.08;;
22005;SDS011;11167;46.988;15.470;2024-03-02T05:48:06;19.30;;;15.45;;
22005;SDS011;11167;46.988;15.470;2024-03-02T05:50:08;22.20;;;16.12;;
22005;SDS011;11167;46.988;15.470;2024-03-02T05:52:10;19.10;;;14.55;;
22005;SDS011;11167;46.988;15.470;2024-03-02T05:54:12;19.85;;;14.00;;
22005;SDS011;11167;46.988;15.470;2024-03-02T05:56:13;22.13;;;15.93;;
22005;SDS011;11167;46.988;15.470;2024-03-02T05:58:14;18.90;;;14.23;;
22005;SDS011;11167;46.988;15.470;2024-03-02T06:00:20;19.15;;;15.10;;
22005;SDS011;11167;46.988;15.470;2024-03-02T06:02:23;20.43;;;15.25;;
22005;SDS011;11167;46.988;15.470;2024-03-02T06:04:25;19.82;;;14.43;;
22005;SDS011;11167;46.988;15.470;2024-03-02T06:06:26;18.95;;;15.28;;
22005;SDS011;11167;46.988;15.470;2024-03-02T06:08:27;20.50;;;14.93;;
22005;SDS011;11167;46.988;15.470;2024-03-02T06:10:28;20.55;;;14.50;;
22005;SDS011;11167;46.988;15.470;2024-03-02T06:12:30;18.42;;;14.07;;
22005;SDS011;11167;46.988;15.470;2024-03-02T06:14:33;19.12;;;14.23;;
22005;SDS011;11167;46.988;15.470;2024-03-02T06:16:34;18.37;;;14.10;;
22005;SDS011;11167;46.988;15.470;2024-03-02T06:18:35;18.48;;;14.30;;
22005;SDS011;11167;46.988;15.470;2024-03-02T06:20:37;19.50;;;14.68;;
22005;SDS011;11167;46.988;15.470;2024-03-02T06:22:40;18.10;;;14.33;;
22005;SDS011;11167;46.988;15.470;2024-03-02T06:24:41;19.42;;;14.47;;
22005;SDS011;11167;46.988;15.470;2024-03-02T06:26:43;20.23;;;14.30;;
22005;SDS011;11167;46.988;15.470;2024-03-02T06:28:44;19.05;;;13.98;;
22005;SDS011;11167;46.988;15.470;2024-03-02T06:30:46;21.17;;;14.45;;
22005;SDS011;11167;46.988;15.470;2024-03-02T06:32:48;20.82;;;14.70;;
22005;SDS011;11167;46.988;15.470;2024-03-02T06:34:49;20.55;;;14.55;;
22005;SDS011;11167;46.988;15.470;2024-03-02T06:36:50;18.12;;;13.83;;
22005;SDS011;11167;46.988;15.470;2024-03-02T06:38:51;19.62;;;13.85;;
22005;SDS011;11167;46.988;15.470;2024-03-02T06:40:53;18.80;;;14.15;;
22005;SDS011;11167;46.988;15.470;2024-03-02T06:42:57;18.55;;;14.07;;
22005;SDS011;11167;46.988;15.470;2024-03-02T06:44:59;20.77;;;14.03;;
22005;SDS011;11167;46.988;15.470;2024-03-02T06:47:01;21.85;;;14.20;;
22005;SDS011;11167;46.988;15.470;2024-03-02T06:49:02;22.40;;;15.03;;
22005;SDS011;11167;46.988;15.470;2024-03-02T06:51:04;20.88;;;15.08;;
22005;SDS011;11167;46.988;15.470;2024-03-02T06:53:06;19.10;;;13.83;;
22005;SDS011;11167;46.988;15.470;2024-03-02T06:55:08;19.87;;;13.18;;
22005;SDS011;11167;46.988;15.470;2024-03-02T06:57:09;20.50;;;13.62;;
22005;SDS011;11167;46.988;15.470;2024-03-02T06:59:11;18.70;;;14.23;;
22005;SDS011;11167;46.988;15.470;2024-03-02T07:01:12;18.77;;;14.13;;
22005;SDS011;11167;46.988;15.470;2024-03-02T07:03:13;20.88;;;14.63;;
22005;SDS011;11167;46.988;15.470;2024-03-02T07:05:14;18.87;;;13.55;;
22005;SDS011;11167;46.988;15.470;2024-03-02T07:07:16;18.75;;;13.38;;
22005;SDS011;11167;46.988;15.470;2024-03-02T07:09:17;19.52;;;13.53;;
22005;SDS011;11167;46.988;15.470;2024-03-02T07:11:18;20.62;;;14.05;;
22005;SDS011;11167;46.988;15.470;2024-03-02T07:13:19;18.23;;;13.80;;
22005;SDS011;11167;46.988;15.470;2024-03-02T07:15:20;19.00;;;13.20;;
22005;SDS011;11167;46.988;15.470;2024-03-02T07:17:29;19.80;;;13.65;;
22005;SDS011;11167;46.988;15.470;2024-03-02T07:19:32;17.62;;;12.78;;
22005;SDS011;11167;46.988;15.470;2024-03-02T07:21:34;18.55;;;13.72;;
22005;SDS011;11167;46.988;15.470;2024-03-02T07:23:35;17.95;;;12.63;;
22005;SDS011;11167;46.988;15.470;2024-03-02T07:25:36;16.85;;;12.05;;
22005;SDS011;11167;46.988;15.470;2024-03-02T07:27:38;15.80;;;11.73;;
22005;SDS011;11167;46.988;15.470;2024-03-02T07:29:40;16.32;;;12.07;;
22005;SDS011;11167;46.988;15.470;2024-03-02T07:31:41;16.77;;;12.23;;
22005;SDS011;11167;46.988;15.470;2024-03-02T07:33:44;17.35;;;12.82;;
22005;SDS011;11167;46.988;15.470;2024-03-02T07:35:47;16.20;;;11.48;;
22005;SDS011;11167;46.988;15.470;2024-03-02T07:37:48;16.37;;;11.88;;
22005;SDS011;11167;46.988;15.470;2024-03-02T07:39:49;14.98;;;11.20;;
22005;SDS011;11167;46.988;15.470;2024-03-02T07:41:51;15.48;;;11.55;;
22005;SDS011;11167;46.988;15.470;2024-03-02T07:43:52;15.70;;;11.48;;
22005;SDS011;11167;46.988;15.470;2024-03-02T07:45:53;17.40;;;12.28;;
22005;SDS011;11167;46.988;15.470;2024-03-02T07:47:56;16.20;;;12.00;;
22005;SDS011;11167;46.988;15.470;2024-03-02T07:49:57;16.27;;;12.20;;
22005;SDS011;11167;46.988;15.470;2024-03-02T07:51:58;16.40;;;12.07;;
22005;SDS011;11167;46.988;15.470;2024-03-02T07:54:00;16.52;;;11.93;;
22005;SDS011;11167;46.988;15.470;2024-03-02T07:56:01;15.28;;;11.88;;
22005;SDS011;11167;46.988;15.470;2024-03-02T07:58:03;16.25;;;12.13;;
22005;SDS011;11167;46.988;15.470;2024-03-02T08:00:05;19.25;;;13.10;;
22005;SDS011;11167;46.988;15.470;2024-03-02T08:02:07;15.83;;;12.03;;
22005;SDS011;11167;46.988;15.470;2024-03-02T08:04:09;16.40;;;11.93;;
22005;SDS011;11167;46.988;15.470;2024-03-02T08:06:10;15.70;;;11.43;;
22005;SDS011;11167;46.988;15.470;2024-03-02T08:08:11;16.17;;;11.93;;
22005;SDS011;11167;46.988;15.470;2024-03-02T08:10:12;15.18;;;11.15;;
22005;SDS011;11167;46.988;15.470;2024-03-02T08:12:15;17.40;;;11.83;;
22005;SDS011;11167;46.988;15.470;2024-03-02T08:14:18;14.60;;;11.03;;
22005;SDS011;11167;46.988;15.470;2024-03-02T08:16:19;15.43;;;11.12;;
22005;SDS011;11167;46.988;15.470;2024-03-02T08:18:22;16.37;;;12.13;;
22005;SDS011;11167;46.988;15.470;2024-03-02T08:20:24;19.50;;;13.20;;
22005;SDS011;11167;46.988;15.470;2024-03-02T08:22:25;17.20;;;12.25;;
22005;SDS011;11167;46.988;15.470;2024-03-02T08:24:26;16.35;;;11.95;;
22005;SDS011;11167;46.988;15.470;2024-03-02T08:26:27;15.48;;;11.78;;
22005;SDS011;11167;46.988;15.470;2024-03-02T08:28:32;18.00;;;12.25;;
22005;SDS011;11167;46.988;15.470;2024-03-02T08:30:34;17.77;;;11.70;;
22005;SDS011;11167;46.988;15.470;2024-03-02T08:32:36;16.82;;;12.33;;
22005;SDS011;11167;46.988;15.470;2024-03-02T08:34:37;17.92;;;12.03;;
22005;SDS011;11167;46.988;15.470;2024-03-02T08:36:38;16.80;;;11.33;;
22005;SDS011;11167;46.988;15.470;2024-03-02T08:38:39;16.15;;;11.18;;
22005;SDS011;11167;46.988;15.470;2024-03-02T08:40:40;16.90;;;11.45;;
22005;SDS011;11167;46.988;15.470;2024-03-02T08:42:42;15.88;;;11.45;;
22005;SDS011;11167;46.988;15.470;2024-03-02T08:44:44;15.03;;;11.68;;
22005;SDS011;11167;46.988;15.470;2024-03-02T08:46:45;15.10;;;11.33;;
22005;SDS011;11167;46.988;15.470;2024-03-02T08:48:46;15.58;;;11.20;;
22005;SDS011;11167;46.988;15.470;2024-03-02T08:50:47;15.68;;;11.03;;
22005;SDS011;11167;46.988;15.470;2024-03-02T08:52:49;15.85;;;11.18;;
22005;SDS011;11167;46.988;15.470;2024-03-02T08:54:50;16.02;;;12.18;;
22005;SDS011;11167;46.988;15.470;2024-03-02T08:56:51;15.53;;;11.30;;
22005;SDS011;11167;46.988;15.470;2024-03-02T08:58:53;14.73;;;11.22;;
22005;SDS011;11167;46.988;15.470;2024-03-02T09:00:54;18.23;;;11.78;;
22005;SDS011;11167;46.988;15.470;2024-03-02T09:02:55;16.12;;;11.63;;
22005;SDS011;11167;46.988;15.470;2024-03-02T09:04:57;17.45;;;11.78;;
22005;SDS011;11167;46.988;15.470;2024-03-02T09:06:58;15.10;;;11.35;;
22005;SDS011;11167;46.988;15.470;2024-03-02T09:09:00;14.33;;;11.30;;
22005;SDS011;11167;46.988;15.470;2024-03-02T09:11:01;15.20;;;11.57;;
22005;SDS011;11167;46.988;15.470;2024-03-02T09:13:03;15.23;;;11.00;;
22005;SDS011;11167;46.988;15.470;2024-03-02T09:15:05;15.00;;;11.00;;
22005;SDS011;11167;46.988;15.470;2024-03-02T09:17:06;14.38;;;10.65;;
22005;SDS011;11167;46.988;15.470;2024-03-02T09:19:10;13.75;;;10.68;;
22005;SDS011;11167;46.988;15.470;2024-03-02T09:21:12;14.33;;;11.12;;
22005;SDS011;11167;46.988;15.470;2024-03-02T09:23:14;14.10;;;10.88;;
22005;SDS011;11167;46.988;15.470;2024-03-02T09:25:15;15.93;;;11.33;;
22005;SDS011;11167;46.988;15.470;2024-03-02T09:27:16;16.62;;;12.07;;
22005;SDS011;11167;46.988;15.470;2024-03-02T09:29:18;14.43;;;11.22;;
22005;SDS011;11167;46.988;15.470;2024-03-02T09:31:21;14.90;;;11.07;;
22005;SDS011;11167;46.988;15.470;2024-03-02T09:33:23;15.43;;;11.93;;
22005;SDS011;11167;46.988;15.470;2024-03-02T09:35:24;16.25;;;11.48;;
22005;SDS011;11167;46.988;15.470;2024-03-02T09:37:26;16.48;;;11.33;;
22005;SDS011;11167;46.988;15.470;2024-03-02T09:39:27;16.25;;;11.73;;
22005;SDS011;11167;46.988;15.470;2024-03-02T09:41:28;19.60;;;12.35;;
22005;SDS011;11167;46.988;15.470;2024-03-02T09:43:29;16.73;;;11.90;;
22005;SDS011;11167;46.988;15.470;2024-03-02T09:45:31;15.75;;;11.68;;
22005;SDS011;11167;46.988;15.470;2024-03-02T09:47:32;15.15;;;11.20;;
22005;SDS011;11167;46.988;15.470;2024-03-02T09:49:35;15.48;;;11.33;;
22005;SDS011;11167;46.988;15.470;2024-03-02T09:51:37;15.20;;;11.40;;
22005;SDS011;11167;46.988;15.470;2024-03-02T09:53:38;15.45;;;11.08;;
22005;SDS011;11167;46.988;15.470;2024-03-02T09:55:40;14.83;;;11.10;;
22005;SDS011;11167;46.988;15.470;2024-03-02T09:57:43;16.03;;;11.20;;
22005;SDS011;11167;46.988;15.470;2024-03-02T09:59:46;12.93;;;10.10;;
22005;SDS011;11167;46.988;15.470;2024-03-02T10:01:59;15.45;;;11.18;;
22005;SDS011;11167;46.988;15.470;2024-03-02T10:04:01;13.25;;;10.55;;
22005;SDS011;11167;46.988;15.470;2024-03-02T10:08:25;16.10;;;11.35;;
22005;SDS011;11167;46.988;15.470;2024-03-02T10:10:34;11.70;;;9.45;;
22005;SDS011;11167;46.988;15.470;2024-03-02T10:12:38;13.25;;;9.95;;
22005;SDS011;11167;46.988;15.470;2024-03-02T10:14:40;13.22;;;10.08;;
22005;SDS011;11167;46.988;15.470;2024-03-02T10:16:43;14.15;;;10.03;;
22005;SDS011;11167;46.988;15.470;2024-03-02T10:18:45;13.98;;;9.60;;
22005;SDS011;11167;46.988;15.470;2024-03-02T10:20:46;13.72;;;9.73;;
22005;SDS011;11167;46.988;15.470;2024-03-02T10:22:49;13.15;;;9.78;;
22005;SDS011;11167;46.988;15.470;2024-03-02T10:24:50;12.45;;;9.58;;
22005;SDS011;11167;46.988;15.470;2024-03-02T10:26:53;13.48;;;10.28;;
22005;SDS011;11167;46.988;15.470;2024-03-02T10:28:57;13.93;;;9.85;;
22005;SDS011;11167;46.988;15.470;2024-03-02T10:31:00;13.32;;;10.23;;
22005;SDS011;11167;46.988;15.470;2024-03-02T10:33:04;12.60;;;9.90;;
22005;SDS011;11167;46.988;15.470;2024-03-02T10:35:07;12.65;;;9.65;;
22005;SDS011;11167;46.988;15.470;2024-03-02T10:37:08;12.70;;;9.90;;
22005;SDS011;11167;46.988;15.470;2024-03-02T10:39:12;12.90;;;9.88;;
22005;SDS011;11167;46.988;15.470;2024-03-02T10:41:18;12.80;;;9.95;;
22005;SDS011;11167;46.988;15.470;2024-03-02T10:43:20;12.07;;;9.40;;
22005;SDS011;11167;46.988;15.470;2024-03-02T10:45:22;13.40;;;9.83;;
22005;SDS011;11167;46.988;15.470;2024-03-02T10:47:24;12.70;;;9.58;;
22005;SDS011;11167;46.988;15.470;2024-03-02T10:49:27;11.83;;;8.48;;
22005;SDS011;11167;46.988;15.470;2024-03-02T10:51:31;11.33;;;8.75;;
22005;SDS011;11167;46.988;15.470;2024-03-02T10:53:34;10.82;;;8.55;;
22005;SDS011;11167;46.988;15.470;2024-03-02T10:55:35;11.55;;;9.13;;
22005;SDS011;11167;46.988;15.470;2024-03-02T10:57:40;12.33;;;8.88;;
22005;SDS011;11167;46.988;15.470;2024-03-02T10:59:49;14.15;;;9.90;;
22005;SDS011;11167;46.988;15.470;2024-03-02T11:01:50;13.32;;;8.85;;
22005;SDS011;11167;46.988;15.470;2024-03-02T11:03:51;12.03;;;8.78;;
22005;SDS011;11167;46.988;15.470;2024-03-02T11:05:53;11.05;;;8.33;;
22005;SDS011;11167;46.988;15.470;2024-03-02T11:08:00;10.45;;;7.92;;
22005;SDS011;11167;46.988;15.470;2024-03-02T11:12:36;11.80;;;8.23;;
22005;SDS011;11167;46.988;15.470;2024-03-02T11:14:35;9.83;;;8.35;;
22005;SDS011;11167;46.988;15.470;2024-03-02T11:16:40;10.23;;;7.92;;
22005;SDS011;11167;46.988;15.470;2024-03-02T11:18:42;10.90;;;7.92;;
22005;SDS011;11167;46.988;15.470;2024-03-02T11:20:44;10.60;;;8.23;;
22005;SDS011;11167;46.988;15.470;2024-03-02T11:22:47;10.60;;;7.40;;
22005;SDS011;11167;46.988;15.470;2024-03-02T11:24:49;10.88;;;7.30;;
22005;SDS011;11167;46.988;15.470;2024-03-02T11:26:51;9.65;;;7.20;;
22005;SDS011;11167;46.988;15.470;2024-03-02T11:28:53;8.90;;;7.33;;
22005;SDS011;11167;46.988;15.470;2024-03-02T11:30:54;9.63;;;6.90;;
22005;SDS011;11167;46.988;15.470;2024-03-02T11:32:55;8.03;;;6.70;;
22005;SDS011;11167;46.988;15.470;2024-03-02T11:34:56;9.15;;;6.67;;
22005;SDS011;11167;46.988;15.470;2024-03-02T11:36:59;9.98;;;6.90;;
22005;SDS011;11167;46.988;15.470;2024-03-02T11:39:01;10.08;;;7.12;;
22005;SDS011;11167;46.988;15.470;2024-03-02T11:41:07;8.43;;;6.62;;
22005;SDS011;11167;46.988;15.470;2024-03-02T11:43:11;7.85;;;6.50;;
22005;SDS011;11167;46.988;15.470;2024-03-02T11:45:16;8.78;;;6.28;;
22005;SDS011;11167;46.988;15.470;2024-03-02T11:47:20;8.75;;;6.70;;
22005;SDS011;11167;46.988;15.470;2024-03-02T11:51:50;8.95;;;6.08;;
22005;SDS011;11167;46.988;15.470;2024-03-02T11:53:53;7.53;;;5.90;;